Flight Track Log - Related Links

Times and Time Zones

All times are in EDT time to prevent confusion due to time zone crossing. See the LIA553 flight status page for this flight to view local times or setup timezone preferences in your user account.

Time Position Orientation Groundspeed Altitude Reporting Facility
EDT Latitude Longitude Course Direction KTS MPH feet Rate Location/Type
Mon 01:41:45 PM 18.3167 -64.9333 66° East 130 150 1,400  Level San Juan Center
Mon 01:42:46 PM 18.3167 -64.9000 90° East 120 138 3,100 1,587 Climbing San Juan Center
Mon 01:43:46 PM 18.3167 -64.8667 90° East 140 161 4,600 1,500 Climbing San Juan Center
Mon 01:44:46 PM 18.3167 -64.8167 90° East 150 173 6,100 1,240 Climbing San Juan Center
Mon 01:45:47 PM 18.3167 -64.7667 90° East 190 219 7,100 1,240 Climbing San Juan Center
Mon 01:46:47 PM 18.3167 -64.7000 90° East 190 219 8,600 950 Climbing San Juan Center
Mon 01:47:00 PM 18.4301 -64.7909 66° East  Level FlightAware Approximate
Mon 01:47:47 PM 18.3333 -64.6500 71° East 210 242 9,000  Level San Juan Center
Mon 01:48:47 PM 18.3333 -64.5667 90° East 260 299 9,000  Level San Juan Center
Mon 01:49:48 PM 18.3333 -64.5000 90° East 260 299 9,000  Level San Juan Center
Mon 01:50:48 PM 18.3333 -64.4167 90° East 260 299 9,000  Level San Juan Center
Mon 01:51:48 PM 18.3500 -64.3500 75° East 260 299 9,000  Level San Juan Center
Mon 01:52:49 PM 18.3500 -64.2667 90° East 270 311 9,000  Level San Juan Center
Mon 01:53:49 PM 18.3500 -64.1833 90° East 260 299 9,000  Level San Juan Center
Mon 01:54:49 PM 18.3500 -64.1000 90° East 260 299 9,000  Level San Juan Center
Mon 01:55:50 PM 18.3500 -64.0333 90° East 260 299 9,000  Level San Juan Center
Mon 01:56:50 PM 18.3667 -63.9500 78° East 260 299 9,000 50 Level San Juan Center
Mon 01:57:50 PM 18.3667 -63.8833 90° East 270 311 9,100 50 Climbing San Juan Center
Mon 01:58:51 PM 18.3667 -63.8000 90° East 270 311 9,100  Level San Juan Center
Mon 02:00:00 PM 18.3667 -63.7079 90° East  Level FlightAware Approximate
Mon 02:07:00 PM 18.2385 -63.1713 113° Southeast  Level FlightAware Approximate
Mon 02:08:00 PM 18.2075 -63.0983 118° Southeast  Level FlightAware Approximate
Mon 02:09:00 PM 18.2000 -63.0500 90° East  Level FlightAware Approximate
Mon 02:10:00 PM 18.2048 -63.0551 90° East  Level Estimated
Mon 02:11:00 PM 18.2000 -63.0500 90° East  Level FlightAware Approximate
Mon 02:12:00 PM 18.2048 -63.0551 90° East  Level Estimated
Mon 02:13:00 PM 18.2000 -63.0500 90° East  Level FlightAware Approximate
Mon 02:14:00 PM 18.2048 -63.0551 90° East  Level Estimated
Mon 02:15:00 PM 18.2000 -63.0500 90° East  Level FlightAware Approximate
Mon 02:16:00 PM 18.2048 -63.0551 90° East  Level Estimated
Mon 02:17:00 PM 18.2000 -63.0500 90° East  Level FlightAware Approximate
Mon 02:18:00 PM 18.2048 -63.0551 90° East  Level Estimated
Mon 02:19:00 PM 18.2000 -63.0500 90° East  Level FlightAware Approximate
Mon 02:20:00 PM 18.2048 -63.0551 90° East  Level Estimated
Mon 02:21:00 PM 18.2000 -63.0500 90° East  Level FlightAware Approximate
Mon 02:22:00 PM 18.2048 -63.0551 90° East  Level Estimated
Mon 02:23:00 PM 18.2000 -63.0500 90° East  Level FlightAware Approximate
Mon 02:24:00 PM 18.2048 -63.0551 90° East  Level Estimated
Mon 02:25:00 PM 18.2000 -63.0500 90° East  Level FlightAware Approximate
Mon 02:26:00 PM 18.2048 -63.0551 90° East  Level Estimated

Login

Don't have an account? Register now (free) for customized features, flight alerts, and more!